CheckWX is a tool to help pilots better visualize weather data.  It is not intended as a substitute for an official pre-flight weather briefing.

15:18:44 UTC

KCKI METAR
Williamsburg Regional Airport
Kingstree, South Carolina, USA
Current

24 mins ago

KCKI 261455Z AUTO 24006KT 10SM CLR 31/21 A3011 RMK AO2
Observed
May-26 @ 14:55 UTC
Wind
  • 240° at 6 KTS
Visibility
10 SM
Flight Rules
VFR
Cloud Levels
  • Clear skies
Temperature
31°C / 88°F
Dewpoint
21°C / 70°F
Heat Index
34°C / 93°F
Humidity
55%
Altimeter
30.11" Hg
Pressure
1019.62 hPa
Previous

44 mins ago

KCKI 261435Z AUTO 26005KT 10SM CLR 31/20 A3011 RMK AO2
Observed
May-26 @ 14:35 UTC
Wind
  • 260° at 5 KTS
Visibility
10 SM
Flight Rules
VFR
Cloud Levels
  • Clear skies
Temperature
31°C / 88°F
Dewpoint
20°C / 68°F
Heat Index
33°C / 92°F
Humidity
52%
Altimeter
30.11" Hg
Pressure
1019.62 hPa
Previous

1 hour ago

KCKI 261415Z AUTO 25007KT 10SM CLR 30/20 A3011 RMK AO2
Observed
May-26 @ 14:15 UTC
Wind
  • 250° at 7 KTS
Visibility
10 SM
Flight Rules
VFR
Cloud Levels
  • Clear skies
Temperature
30°C / 86°F
Dewpoint
20°C / 68°F
Heat Index
32°C / 89°F
Humidity
55%
Altimeter
30.11" Hg
Pressure
1019.62 hPa